createdAt,value
2018-03-06T00:02:56.585Z,23.17
2018-03-06T00:07:57.531Z,24.10
2018-03-06T00:12:58.457Z,25.07
2018-03-06T00:17:59.414Z,24.27
2018-03-06T00:23:00.354Z,25.23
2018-03-06T00:28:01.301Z,26.00
2018-03-06T00:33:02.287Z,24.10
2018-03-06T00:38:03.205Z,24.70
2018-03-06T00:43:04.204Z,27.23
2018-03-06T00:48:05.132Z,26.63
2018-03-06T00:53:06.087Z,27.30
2018-03-06T00:58:07.036Z,26.87
2018-03-06T01:03:08.004Z,25.20
2018-03-06T01:08:08.936Z,28.33
2018-03-06T01:13:09.873Z,28.00
2018-03-06T01:18:10.835Z,25.90
2018-03-06T01:23:11.779Z,26.63
2018-03-06T01:28:12.762Z,25.13
2018-03-06T01:33:13.729Z,27.63
2018-03-06T01:38:14.680Z,26.03
2018-03-06T01:43:15.608Z,27.73
2018-03-06T01:48:16.539Z,27.77
2018-03-06T01:53:17.481Z,27.17
2018-03-06T01:58:18.425Z,27.17
2018-03-06T02:03:19.397Z,26.37
2018-03-06T02:08:20.356Z,27.43
2018-03-06T02:13:21.301Z,26.63
2018-03-06T02:18:22.269Z,26.23
2018-03-06T02:23:23.216Z,25.20
2018-03-06T02:28:24.161Z,26.90
2018-03-06T02:33:25.152Z,29.40
2018-03-06T02:38:26.107Z,31.20
2018-03-06T02:43:27.036Z,31.70
2018-03-06T02:48:27.994Z,30.73
2018-03-06T02:53:28.923Z,30.30
2018-03-06T02:58:29.859Z,32.90
2018-03-06T03:03:30.861Z,32.83
2018-03-06T03:08:31.802Z,31.57
2018-03-06T03:13:32.737Z,29.67
2018-03-06T03:18:33.698Z,32.00
2018-03-06T03:23:34.643Z,32.87
2018-03-06T03:28:35.590Z,33.60
2018-03-06T03:33:36.582Z,31.23
2018-03-06T03:38:37.529Z,30.60
2018-03-06T03:43:38.485Z,32.00
2018-03-06T03:48:39.423Z,33.73
2018-03-06T03:53:40.344Z,33.17
2018-03-06T03:58:41.291Z,35.13
2018-03-06T04:03:42.256Z,32.60
2018-03-06T04:08:44.069Z,35.13
2018-03-06T04:13:44.997Z,35.90
2018-03-06T04:18:45.937Z,36.07
2018-03-06T04:23:46.884Z,38.47
2018-03-06T04:28:47.831Z,36.80
2018-03-06T04:33:48.779Z,40.57
2018-03-06T04:38:56.699Z,37.87
2018-03-06T04:43:57.649Z,40.00
2018-03-06T04:48:58.603Z,41.20
2018-03-06T04:53:59.533Z,39.83
2018-03-06T04:59:00.494Z,41.83
2018-03-06T05:04:01.458Z,42.10
2018-03-06T05:09:02.429Z,42.07
2018-03-06T05:14:03.363Z,41.90
2018-03-06T05:19:04.283Z,44.07
2018-03-06T05:24:05.213Z,49.10
2018-03-06T05:29:06.136Z,46.07
2018-03-06T05:34:07.084Z,47.80
2018-03-06T05:39:08.034Z,47.40
2018-03-06T05:44:09.007Z,49.43
2018-03-06T05:49:09.956Z,49.20
2018-03-06T05:54:10.884Z,48.73
2018-03-06T05:59:11.833Z,50.83
2018-03-06T06:04:12.788Z,55.03
2018-03-06T06:09:13.733Z,51.53
2018-03-06T06:14:14.675Z,52.00
2018-03-06T06:19:15.649Z,51.40
2018-03-06T06:24:16.552Z,54.17
2018-03-06T06:29:17.474Z,48.90
2018-03-06T06:34:18.418Z,55.57
2018-03-06T06:39:19.362Z,52.93
2018-03-06T06:44:20.316Z,51.40
2018-03-06T06:49:21.256Z,52.23
2018-03-06T06:54:22.203Z,51.83
2018-03-06T06:59:23.126Z,50.53
2018-03-06T07:04:24.118Z,53.40
2018-03-06T07:09:25.080Z,50.00
2018-03-06T07:14:26.025Z,49.37
2018-03-06T07:19:26.971Z,50.33
2018-03-06T07:24:27.909Z,49.80
2018-03-06T07:29:28.844Z,50.40
2018-03-06T07:34:29.817Z,49.90
2018-03-06T07:39:30.715Z,44.77
2018-03-06T07:44:31.678Z,48.60
2018-03-06T07:49:32.604Z,41.73
2018-03-06T07:54:33.542Z,43.80
2018-03-06T07:59:34.502Z,45.70
2018-03-06T08:04:35.468Z,43.10
2018-03-06T08:09:36.470Z,45.57
2018-03-06T08:14:37.352Z,42.87
2018-03-06T08:19:38.289Z,43.07
2018-03-06T08:24:39.225Z,42.07
2018-03-06T08:29:40.170Z,40.13
2018-03-06T08:34:41.287Z,43.77
2018-03-06T08:39:42.202Z,42.90
2018-03-06T08:44:43.137Z,46.07
2018-03-06T08:49:44.065Z,50.03
2018-03-06T08:54:45.005Z,48.87
2018-03-06T08:59:45.957Z,49.50
2018-03-06T09:04:46.925Z,50.47
2018-03-06T09:09:47.848Z,48.93
2018-03-06T09:14:48.759Z,48.00
2018-03-06T09:19:49.690Z,46.50
2018-03-06T09:24:50.623Z,48.53
2018-03-06T09:29:51.577Z,47.50
2018-03-06T09:34:52.524Z,43.60
2018-03-06T09:39:53.466Z,46.70
2018-03-06T09:44:54.376Z,50.00
2018-03-06T09:49:55.317Z,46.10
2018-03-06T09:54:56.271Z,51.40
2018-03-06T09:59:57.200Z,50.93
2018-03-06T10:04:58.196Z,51.60
2018-03-06T10:09:59.136Z,51.43
2018-03-06T10:15:00.078Z,51.27
2018-03-06T10:20:01.039Z,51.50
2018-03-06T10:25:01.972Z,49.87
2018-03-06T10:30:02.937Z,47.30
2018-03-06T10:35:03.920Z,51.03
2018-03-06T10:40:04.850Z,47.63
2018-03-06T10:45:05.813Z,46.03
2018-03-06T10:50:06.750Z,47.10
2018-03-06T10:55:07.683Z,50.50
2018-03-06T11:00:08.627Z,46.47
2018-03-06T11:05:09.590Z,49.10
2018-03-06T11:10:10.505Z,48.40
2018-03-06T11:15:11.430Z,51.60
2018-03-06T11:20:12.362Z,51.90
2018-03-06T11:25:13.317Z,53.03
2018-03-06T11:30:14.278Z,53.10
2018-03-06T11:35:15.236Z,49.80
2018-03-06T11:40:16.167Z,54.00
2018-03-06T11:45:17.112Z,53.87
2018-03-06T11:50:18.044Z,52.80
2018-03-06T11:55:18.989Z,52.27
2018-03-06T12:00:19.911Z,53.80
2018-03-06T12:05:20.902Z,50.10
2018-03-06T12:10:21.842Z,49.57
2018-03-06T12:15:22.805Z,49.70
2018-03-06T12:20:23.732Z,51.57
2018-03-06T12:25:24.682Z,51.07
2018-03-06T12:30:25.614Z,52.97
2018-03-06T12:35:26.874Z,50.37
2018-03-06T12:40:27.805Z,53.10
2018-03-06T12:45:28.770Z,48.63
2018-03-06T12:50:29.723Z,51.63
2018-03-06T12:55:30.680Z,52.80
2018-03-06T13:00:31.651Z,50.77
2018-03-06T13:05:32.605Z,52.00
2018-03-06T13:10:33.577Z,52.90
2018-03-06T13:15:34.513Z,50.10
2018-03-06T13:20:35.456Z,48.27
2018-03-06T13:25:36.398Z,48.50
2018-03-06T13:30:37.337Z,51.40
2018-03-06T13:35:38.325Z,50.97
2018-03-06T13:40:39.292Z,46.07
2018-03-06T13:45:40.226Z,50.47
2018-03-06T13:50:41.162Z,49.33
2018-03-06T13:55:42.141Z,51.03
2018-03-06T14:00:43.081Z,49.30
2018-03-06T14:05:44.104Z,50.80
2018-03-06T14:10:45.067Z,50.70
2018-03-06T14:15:46.021Z,49.93
2018-03-06T14:20:46.971Z,51.03
2018-03-06T14:25:47.918Z,50.73
2018-03-06T14:30:49.204Z,49.90
2018-03-06T14:35:50.166Z,54.70
2018-03-06T14:40:51.108Z,51.47
2018-03-06T14:45:52.036Z,54.20
2018-03-06T14:50:52.991Z,53.43
2018-03-06T14:55:53.958Z,53.23
2018-03-06T15:00:54.932Z,53.07
2018-03-06T15:05:55.915Z,53.90
2018-03-06T15:10:56.861Z,53.07
2018-03-06T15:15:57.785Z,51.77
2018-03-06T15:20:58.754Z,53.73
2018-03-06T15:25:59.701Z,54.30
2018-03-06T15:31:00.672Z,50.07
2018-03-06T15:36:01.623Z,53.40
2018-03-06T15:41:02.576Z,54.50
2018-03-06T15:46:03.548Z,56.40
2018-03-06T15:51:04.539Z,55.60
2018-03-06T15:56:05.493Z,56.80
2018-03-06T16:01:06.454Z,55.57
2018-03-06T16:06:07.488Z,56.50
2018-03-06T16:11:08.450Z,58.43
2018-03-06T16:16:09.417Z,60.13
2018-03-06T16:21:10.358Z,60.90
2018-03-06T16:26:11.359Z,60.57
2018-03-06T16:31:12.293Z,60.27
2018-03-06T16:36:13.248Z,60.63
2018-03-06T16:41:14.995Z,65.43
2018-03-06T16:46:15.994Z,70.03
2018-03-06T16:51:16.954Z,68.80
2018-03-06T16:56:17.913Z,66.97
2018-03-06T17:01:18.876Z,71.80
2018-03-06T17:06:19.918Z,73.10
2018-03-06T17:11:20.888Z,73.73
2018-03-06T17:16:21.863Z,73.27
2018-03-06T17:21:22.816Z,75.00
2018-03-06T17:26:23.765Z,71.77
2018-03-06T17:31:24.745Z,74.80
2018-03-06T17:36:25.751Z,69.80
2018-03-06T17:41:26.763Z,74.17
2018-03-06T17:46:27.731Z,77.53
2018-03-06T17:51:28.830Z,79.17
2018-03-06T17:56:29.812Z,76.53
2018-03-06T18:01:30.799Z,73.23
2018-03-06T18:06:31.788Z,77.20
2018-03-06T18:11:32.819Z,75.53
2018-03-06T18:16:33.766Z,84.70
2018-03-06T18:21:34.760Z,78.20
2018-03-06T18:26:35.754Z,81.20
2018-03-06T18:31:36.738Z,83.57
2018-03-06T18:36:37.742Z,85.93
2018-03-06T18:41:38.739Z,80.20
2018-03-06T18:46:39.802Z,85.77
2018-03-06T18:51:40.815Z,81.07
2018-03-06T18:56:41.790Z,84.10
2018-03-06T19:02:10.591Z,82.40
2018-03-06T19:07:11.586Z,89.93
2018-03-06T19:12:12.578Z,87.03
2018-03-06T19:17:13.599Z,85.50
2018-03-06T19:22:14.590Z,88.03
2018-03-06T19:27:15.596Z,84.47
2018-03-06T19:32:16.587Z,84.13
2018-03-06T19:37:17.595Z,81.63
2018-03-06T19:42:18.590Z,80.20
2018-03-06T19:47:19.575Z,84.53
2018-03-06T19:52:20.567Z,84.43
2018-03-06T19:57:21.530Z,82.60
2018-03-06T20:02:22.525Z,79.30
2018-03-06T20:07:23.542Z,83.20
2018-03-06T20:12:24.538Z,82.93
2018-03-06T20:17:25.524Z,83.00
2018-03-06T20:22:26.538Z,82.60
2018-03-06T20:27:27.545Z,79.13
2018-03-06T20:32:34.692Z,77.83
2018-03-06T20:37:35.683Z,78.97
2018-03-06T20:42:36.705Z,83.53
2018-03-06T20:47:37.664Z,85.20
2018-03-06T20:52:44.643Z,81.33
2018-03-06T20:57:45.612Z,81.17
2018-03-06T21:02:46.579Z,81.97
2018-03-06T21:07:47.602Z,82.57
2018-03-06T21:12:48.585Z,82.40
2018-03-06T21:17:49.526Z,83.70
2018-03-06T21:22:50.490Z,84.73
2018-03-06T21:27:51.493Z,80.60
2018-03-06T21:32:52.466Z,82.77
2018-03-06T21:37:53.431Z,84.57
2018-03-06T21:42:54.410Z,87.70
2018-03-06T21:47:55.397Z,84.27
2018-03-06T21:52:56.384Z,84.60
2018-03-06T21:57:57.323Z,85.03
2018-03-06T22:02:58.278Z,82.63
2018-03-06T22:07:59.242Z,83.80
2018-03-06T22:13:00.191Z,87.60
2018-03-06T22:18:01.131Z,84.90
2018-03-06T22:23:02.068Z,85.77
2018-03-06T22:28:03.003Z,88.17
2018-03-06T22:33:03.970Z,83.53
2018-03-06T22:38:04.916Z,88.07
2018-03-06T22:43:05.870Z,92.30
2018-03-06T22:48:06.813Z,89.07
2018-03-06T22:53:07.769Z,89.70
2018-03-06T22:58:08.698Z,86.07
2018-03-06T23:03:09.629Z,86.47
2018-03-06T23:08:10.617Z,87.37
2018-03-06T23:13:11.584Z,89.67
2018-03-06T23:18:12.518Z,87.80
2018-03-06T23:23:13.462Z,85.70
2018-03-06T23:28:14.408Z,86.37
2018-03-06T23:33:15.325Z,86.17
2018-03-06T23:38:16.251Z,90.07
2018-03-06T23:43:17.176Z,86.40
2018-03-06T23:48:18.118Z,85.83
2018-03-06T23:53:19.054Z,84.10
2018-03-06T23:58:19.997Z,84.90
